createdAt,value
2022-10-06T00:00:48.071Z,99131.00
2022-10-06T00:03:16.275Z,99130.00
2022-10-06T00:05:44.319Z,99140.00
2022-10-06T00:08:12.396Z,99161.00
2022-10-06T00:10:41.932Z,99134.00
2022-10-06T00:13:09.904Z,99173.00
2022-10-06T00:15:37.869Z,99142.00
2022-10-06T00:18:06.048Z,99168.00
2022-10-06T00:20:34.079Z,99176.00
2022-10-06T00:23:02.220Z,99178.00
2022-10-06T00:25:30.268Z,99189.00
2022-10-06T00:27:59.665Z,99141.00
2022-10-06T00:30:28.412Z,99112.00
2022-10-06T00:32:57.610Z,99162.00
2022-10-06T00:35:25.791Z,99174.00
2022-10-06T00:37:54.001Z,99167.00
2022-10-06T00:40:22.046Z,99198.00
2022-10-06T00:42:52.141Z,99124.00
2022-10-06T00:45:22.706Z,99133.00
2022-10-06T00:47:50.786Z,99208.00
2022-10-06T00:50:18.832Z,99178.00
2022-10-06T00:52:46.904Z,99186.00
2022-10-06T00:55:15.483Z,99154.00
2022-10-06T00:57:43.474Z,99199.00
2022-10-06T01:00:12.551Z,99198.00
2022-10-06T01:02:43.645Z,99211.00
2022-10-06T01:05:13.057Z,99173.00
2022-10-06T01:07:41.022Z,99217.00
2022-10-06T01:10:11.761Z,99208.00
2022-10-06T01:12:39.942Z,99185.00
2022-10-06T01:15:09.121Z,99193.00
2022-10-06T01:17:38.771Z,99195.00
2022-10-06T01:20:09.958Z,99194.00
2022-10-06T01:22:40.248Z,99223.00
2022-10-06T01:25:09.243Z,99211.00
2022-10-06T01:27:38.088Z,99137.00
2022-10-06T01:30:07.367Z,99184.00
2022-10-06T01:32:36.637Z,99215.00
2022-10-06T01:35:05.050Z,99197.00
2022-10-06T01:37:33.057Z,99192.00
2022-10-06T01:40:02.427Z,99199.00
2022-10-06T01:42:31.901Z,99222.00
2022-10-06T01:45:00.425Z,99214.00
2022-10-06T01:47:28.427Z,99186.00
2022-10-06T01:49:56.451Z,99232.00
2022-10-06T01:52:26.541Z,99224.00
2022-10-06T01:54:54.973Z,99231.00
2022-10-06T01:57:24.470Z,99226.00
2022-10-06T01:59:54.801Z,99234.00
2022-10-06T02:02:23.173Z,99229.00
2022-10-06T02:04:51.158Z,99219.00
2022-10-06T02:07:19.198Z,99215.00
2022-10-06T02:09:47.197Z,99217.00
2022-10-06T02:12:15.421Z,99256.00
2022-10-06T02:14:44.761Z,99239.00
2022-10-06T02:17:12.810Z,99214.00
2022-10-06T02:19:40.929Z,99227.00
2022-10-06T02:22:08.978Z,99237.00
2022-10-06T02:24:36.949Z,99236.00
2022-10-06T02:27:05.333Z,99250.00
2022-10-06T02:29:33.419Z,99180.00
2022-10-06T02:32:02.780Z,99257.00
2022-10-06T02:34:30.713Z,99258.00
2022-10-06T02:36:58.725Z,99261.00
2022-10-06T02:39:26.666Z,99233.00
2022-10-06T02:41:54.658Z,99230.00
2022-10-06T02:44:23.364Z,99263.00
2022-10-06T02:46:51.419Z,99284.00
2022-10-06T02:49:20.835Z,99276.00
2022-10-06T02:51:48.805Z,99276.00
2022-10-06T02:54:16.756Z,99207.00
2022-10-06T02:56:45.698Z,99304.00
2022-10-06T02:59:13.794Z,99241.00
2022-10-06T03:01:41.978Z,99295.00
2022-10-06T03:04:11.710Z,99273.00
2022-10-06T03:06:41.645Z,99318.00
2022-10-06T03:09:10.172Z,99324.00
2022-10-06T03:11:39.127Z,99321.00
2022-10-06T03:14:07.307Z,99297.00
2022-10-06T03:16:36.349Z,99315.00
2022-10-06T03:19:04.687Z,99325.00
2022-10-06T03:21:34.059Z,99283.00
2022-10-06T03:24:03.530Z,99326.00
2022-10-06T03:26:32.951Z,99332.00
2022-10-06T03:29:01.378Z,99315.00
2022-10-06T03:31:29.705Z,99305.00
2022-10-06T03:33:57.793Z,99324.00
2022-10-06T03:36:27.319Z,99341.00
2022-10-06T03:38:55.580Z,99339.00
2022-10-06T03:41:25.952Z,99348.00
2022-10-06T03:43:54.730Z,99328.00
2022-10-06T03:46:24.540Z,99304.00
2022-10-06T03:48:52.947Z,99330.00
2022-10-06T03:51:22.162Z,99348.00
2022-10-06T03:53:51.000Z,99356.00
2022-10-06T03:56:20.959Z,99335.00
2022-10-06T03:58:51.930Z,99377.00
2022-10-06T04:01:25.734Z,99346.00
2022-10-06T04:03:54.741Z,99364.00
2022-10-06T04:06:23.165Z,99378.00
2022-10-06T04:08:51.745Z,99370.00
2022-10-06T04:11:21.402Z,99367.00
2022-10-06T04:13:52.723Z,99374.00
2022-10-06T04:16:21.926Z,99346.00
2022-10-06T04:18:50.824Z,99353.00
2022-10-06T04:21:19.437Z,99390.00
2022-10-06T04:23:47.500Z,99378.00
2022-10-06T04:26:16.805Z,99380.00
2022-10-06T04:28:50.070Z,99378.00
2022-10-06T04:31:24.645Z,99331.00
2022-10-06T04:33:54.295Z,99387.00
2022-10-06T04:36:24.197Z,99423.00
2022-10-06T04:39:12.464Z,99354.00
2022-10-06T04:42:30.236Z,99438.00
2022-10-06T04:49:04.176Z,99467.00
2022-10-06T04:51:33.095Z,99359.00
2022-10-06T04:54:02.806Z,99424.00
2022-10-06T04:56:34.063Z,99372.00
2022-10-06T04:59:07.840Z,99517.00
2022-10-06T05:01:39.620Z,99477.00
2022-10-06T05:04:19.512Z,99439.00
2022-10-06T05:06:59.894Z,99478.00
2022-10-06T05:09:28.844Z,99495.00
2022-10-06T05:12:01.665Z,99489.00
2022-10-06T05:14:30.272Z,99433.00
2022-10-06T05:16:59.213Z,99480.00
2022-10-06T05:19:29.353Z,99550.00
2022-10-06T05:21:58.049Z,99436.00
2022-10-06T05:24:26.558Z,99404.00
2022-10-06T05:27:01.508Z,99462.00
2022-10-06T05:29:30.519Z,99420.00
2022-10-06T05:32:02.109Z,99527.00
2022-10-06T05:35:11.465Z,99482.00
2022-10-06T05:37:40.299Z,99519.00
2022-10-06T05:40:09.509Z,99439.00
2022-10-06T05:42:39.525Z,99617.00
2022-10-06T05:45:09.341Z,99530.00
2022-10-06T05:47:38.936Z,99550.00
2022-10-06T05:50:10.310Z,99510.00
2022-10-06T05:52:40.656Z,99506.00
2022-10-06T05:55:11.236Z,99598.00
2022-10-06T05:57:39.369Z,99546.00
2022-10-06T06:00:08.834Z,99535.00
2022-10-06T06:02:37.167Z,99524.00
2022-10-06T06:05:06.048Z,99560.00
2022-10-06T06:07:35.562Z,99545.00
2022-10-06T06:10:03.634Z,99577.00
2022-10-06T06:12:31.713Z,99539.00
2022-10-06T06:15:16.911Z,99579.00
2022-10-06T06:17:44.931Z,99528.00
2022-10-06T06:20:13.196Z,99582.00
2022-10-06T06:22:42.592Z,99561.00
2022-10-06T06:25:12.945Z,99618.00
2022-10-06T06:27:42.141Z,99605.00
2022-10-06T06:30:11.204Z,99614.00
2022-10-06T06:32:39.680Z,99616.00
2022-10-06T06:35:08.586Z,99620.00
2022-10-06T06:37:36.546Z,99615.00
2022-10-06T06:40:06.546Z,99601.00
2022-10-06T06:42:34.908Z,99615.00
2022-10-06T06:45:02.876Z,99624.00
2022-10-06T06:47:30.891Z,99638.00
2022-10-06T06:50:00.267Z,99639.00
2022-10-06T06:52:28.414Z,99629.00
2022-10-06T06:54:57.159Z,99645.00
2022-10-06T06:57:26.587Z,99614.00
2022-10-06T06:59:56.034Z,99664.00
2022-10-06T07:02:26.577Z,99610.00
2022-10-06T07:04:54.826Z,99659.00
2022-10-06T07:07:22.865Z,99645.00
2022-10-06T07:09:50.861Z,99653.00
2022-10-06T07:12:19.197Z,99661.00
2022-10-06T07:15:07.910Z,99680.00
2022-10-06T07:17:53.956Z,99732.00
2022-10-06T07:20:39.460Z,99714.00
2022-10-06T07:23:25.117Z,99698.00
2022-10-06T07:25:53.823Z,99689.00
2022-10-06T07:28:21.902Z,99712.00
2022-10-06T07:30:52.951Z,99711.00
2022-10-06T07:33:20.901Z,99733.00
2022-10-06T07:35:51.866Z,99729.00
2022-10-06T07:38:24.467Z,99728.00
2022-10-06T07:41:17.951Z,99690.00
2022-10-06T07:43:43.554Z,99718.00
2022-10-06T07:46:13.075Z,99770.00
2022-10-06T07:48:41.329Z,99764.00
2022-10-06T07:51:13.780Z,99748.00
2022-10-06T07:53:41.750Z,99744.00
2022-10-06T07:56:11.237Z,99692.00
2022-10-06T07:58:39.711Z,99762.00
2022-10-06T08:01:08.330Z,99714.00
2022-10-06T08:03:39.033Z,99757.00
2022-10-06T08:06:09.778Z,99726.00
2022-10-06T08:08:37.966Z,99771.00
2022-10-06T08:11:06.866Z,99764.00
2022-10-06T08:13:36.296Z,99767.00
2022-10-06T08:16:05.417Z,99765.00
2022-10-06T08:18:49.570Z,99809.00
2022-10-06T08:21:18.970Z,99748.00
2022-10-06T08:23:47.369Z,99787.00
2022-10-06T08:26:15.651Z,99837.00
2022-10-06T08:28:45.162Z,99804.00
2022-10-06T08:31:13.407Z,99798.00
2022-10-06T08:33:42.400Z,99796.00
2022-10-06T08:36:14.324Z,99784.00
2022-10-06T08:38:42.579Z,99808.00
2022-10-06T08:41:20.797Z,99780.00
2022-10-06T08:43:51.602Z,99776.00
2022-10-06T08:46:22.466Z,99788.00
2022-10-06T08:48:53.287Z,99804.00
2022-10-06T08:51:40.998Z,99790.00
2022-10-06T08:54:11.495Z,99795.00
2022-10-06T08:56:48.520Z,99830.00
2022-10-06T08:59:16.480Z,99834.00
2022-10-06T09:01:46.026Z,99825.00
2022-10-06T09:04:16.769Z,99793.00
2022-10-06T09:06:48.555Z,99756.00
2022-10-06T09:09:25.343Z,99840.00
2022-10-06T09:11:59.092Z,99841.00
2022-10-06T09:14:31.436Z,99837.00
2022-10-06T09:17:01.017Z,99833.00
2022-10-06T09:19:42.239Z,99842.00
2022-10-06T09:22:17.321Z,99878.00
2022-10-06T09:24:50.151Z,99835.00
2022-10-06T09:27:19.864Z,99858.00
2022-10-06T09:29:49.411Z,99926.00
2022-10-06T09:32:17.904Z,99845.00
2022-10-06T09:34:49.889Z,99881.00
2022-10-06T09:37:28.469Z,99820.00
2022-10-06T09:39:56.719Z,99864.00
2022-10-06T09:42:27.007Z,99875.00
2022-10-06T09:44:58.487Z,99902.00
2022-10-06T09:47:36.093Z,99838.00
2022-10-06T09:50:12.509Z,99851.00
2022-10-06T09:52:42.127Z,99845.00
2022-10-06T09:55:12.627Z,99862.00
2022-10-06T09:57:41.064Z,99848.00
2022-10-06T10:00:27.570Z,99871.00
2022-10-06T10:02:58.257Z,99865.00
2022-10-06T10:05:29.830Z,99851.00
2022-10-06T10:08:10.072Z,99852.00
2022-10-06T10:10:38.220Z,99870.00
2022-10-06T10:13:19.135Z,99862.00
2022-10-06T10:15:55.293Z,99865.00
2022-10-06T10:18:26.729Z,99823.00
2022-10-06T10:20:57.584Z,99850.00
2022-10-06T10:23:31.796Z,99828.00
2022-10-06T10:26:22.563Z,99862.00
2022-10-06T10:29:37.992Z,99862.00
2022-10-06T10:32:11.926Z,99856.00
2022-10-06T10:34:58.637Z,99848.00
2022-10-06T10:37:31.934Z,99887.00
2022-10-06T10:40:02.509Z,99836.00
2022-10-06T10:42:33.253Z,99886.00
2022-10-06T10:45:02.044Z,99883.00
2022-10-06T10:47:31.712Z,99880.00
2022-10-06T10:50:01.511Z,99934.00
2022-10-06T10:52:30.479Z,99866.00
2022-10-06T10:55:06.931Z,99869.00
2022-10-06T10:57:37.092Z,99881.00
2022-10-06T11:00:07.585Z,99875.00
2022-10-06T11:02:38.313Z,99892.00
2022-10-06T11:05:13.536Z,99889.00
2022-10-06T11:07:44.401Z,99864.00
2022-10-06T11:10:15.115Z,99869.00
2022-10-06T11:12:57.019Z,99877.00
2022-10-06T11:15:31.513Z,99889.00
2022-10-06T11:18:01.440Z,99874.00
2022-10-06T11:20:40.099Z,99857.00
2022-10-06T11:23:22.989Z,99885.00
2022-10-06T11:25:55.784Z,99866.00
2022-10-06T11:28:25.878Z,99861.00
2022-10-06T11:30:59.804Z,99878.00
2022-10-06T11:33:30.468Z,99875.00
2022-10-06T11:35:58.448Z,99842.00
2022-10-06T11:38:28.156Z,99886.00
2022-10-06T11:41:10.134Z,99880.00
2022-10-06T11:43:42.313Z,99869.00
2022-10-06T11:46:21.712Z,99878.00
2022-10-06T11:48:49.915Z,99870.00
2022-10-06T11:51:38.935Z,99886.00
2022-10-06T11:54:27.915Z,99882.00
2022-10-06T11:56:57.488Z,99873.00
2022-10-06T11:59:31.375Z,99866.00
2022-10-06T12:02:03.188Z,99865.00
2022-10-06T12:04:31.538Z,99864.00
2022-10-06T12:07:00.749Z,99866.00
2022-10-06T12:09:52.609Z,99859.00
2022-10-06T12:13:06.295Z,99858.00
2022-10-06T12:18:58.330Z,99853.00
2022-10-06T12:21:34.043Z,99854.00
2022-10-06T12:24:05.661Z,99849.00
2022-10-06T12:26:38.596Z,99844.00
2022-10-06T12:29:22.170Z,99855.00
2022-10-06T12:31:54.786Z,99845.00
2022-10-06T12:34:59.969Z,99846.00
2022-10-06T12:37:41.517Z,99849.00
2022-10-06T12:40:58.268Z,99846.00
2022-10-06T12:43:51.089Z,99835.00
2022-10-06T12:46:25.677Z,99851.00
2022-10-06T12:49:05.915Z,99843.00
2022-10-06T12:51:35.028Z,99836.00
2022-10-06T12:54:06.486Z,99834.00
2022-10-06T12:56:35.802Z,99832.00
2022-10-06T12:59:24.513Z,99844.00
2022-10-06T13:01:56.353Z,99834.00
2022-10-06T13:04:45.739Z,99839.00
2022-10-06T13:07:17.002Z,99837.00
2022-10-06T13:09:45.143Z,99841.00
2022-10-06T13:12:37.559Z,99828.00
2022-10-06T13:15:20.089Z,99832.00
2022-10-06T13:17:51.714Z,99838.00
2022-10-06T13:20:37.352Z,99841.00
2022-10-06T13:23:12.408Z,99837.00
2022-10-06T13:25:44.331Z,99844.00
2022-10-06T13:28:27.221Z,99831.00
2022-10-06T13:30:56.709Z,99824.00
2022-10-06T13:33:28.022Z,99829.00
2022-10-06T13:35:56.295Z,99835.00
2022-10-06T13:38:24.491Z,99825.00
2022-10-06T13:41:17.087Z,99826.00
2022-10-06T13:43:46.585Z,99827.00
2022-10-06T13:46:16.450Z,99826.00
2022-10-06T13:48:47.191Z,99826.00
2022-10-06T13:51:17.816Z,99819.00
2022-10-06T13:53:46.138Z,99820.00
2022-10-06T13:56:34.698Z,99824.00
2022-10-06T13:59:16.989Z,99824.00
2022-10-06T14:01:45.263Z,99825.00
2022-10-06T14:04:15.005Z,99827.00
2022-10-06T14:06:50.314Z,99825.00
2022-10-06T14:09:22.442Z,99810.00
2022-10-06T14:11:50.624Z,99831.00
2022-10-06T14:14:19.087Z,99822.00
2022-10-06T14:16:51.674Z,99832.00
2022-10-06T14:19:34.865Z,99830.00
2022-10-06T14:22:03.642Z,99829.00
2022-10-06T14:24:34.242Z,99835.00
2022-10-06T14:27:03.110Z,99833.00
2022-10-06T14:29:31.765Z,99835.00
2022-10-06T14:32:08.334Z,99820.00
2022-10-06T14:34:37.880Z,99817.00
2022-10-06T14:37:06.104Z,99823.00
2022-10-06T14:39:34.302Z,99831.00
2022-10-06T14:42:02.554Z,99826.00
2022-10-06T14:44:31.172Z,99826.00
2022-10-06T14:46:59.655Z,99825.00
2022-10-06T14:49:27.952Z,99833.00
2022-10-06T14:51:57.473Z,99824.00
2022-10-06T14:54:26.843Z,99811.00
2022-10-06T14:56:55.317Z,99825.00
2022-10-06T14:59:23.522Z,99821.00
2022-10-06T15:01:52.448Z,99826.00
2022-10-06T15:04:24.355Z,99829.00
2022-10-06T15:07:11.082Z,99813.00
2022-10-06T15:09:40.679Z,99823.00
2022-10-06T15:12:08.929Z,99820.00
2022-10-06T15:14:39.841Z,99833.00
2022-10-06T15:17:08.262Z,99827.00
2022-10-06T15:19:36.522Z,99824.00
2022-10-06T15:22:06.350Z,99813.00
2022-10-06T15:24:37.307Z,99811.00
2022-10-06T15:27:25.480Z,99819.00
2022-10-06T15:29:53.677Z,99818.00
2022-10-06T15:32:22.605Z,99817.00
2022-10-06T15:34:51.963Z,99819.00
2022-10-06T15:37:20.380Z,99810.00
2022-10-06T15:39:48.560Z,99818.00
2022-10-06T15:42:21.580Z,99820.00
2022-10-06T15:44:50.019Z,99820.00
2022-10-06T15:47:18.261Z,99819.00
2022-10-06T15:49:47.055Z,99817.00
2022-10-06T15:52:17.021Z,99813.00
2022-10-06T15:54:49.975Z,99813.00
2022-10-06T15:57:21.299Z,99824.00
2022-10-06T15:59:51.413Z,99819.00
2022-10-06T16:02:20.248Z,99807.00
2022-10-06T16:05:16.036Z,99819.00
2022-10-06T16:07:44.195Z,99818.00
2022-10-06T16:10:13.585Z,99823.00
2022-10-06T16:12:43.246Z,99819.00
2022-10-06T16:15:12.020Z,99820.00
2022-10-06T16:17:40.194Z,99825.00
2022-10-06T16:20:09.793Z,99812.00
2022-10-06T16:22:39.641Z,99832.00
2022-10-06T16:25:08.663Z,99822.00
2022-10-06T16:27:40.225Z,99826.00
2022-10-06T16:30:11.035Z,99826.00
2022-10-06T16:32:39.553Z,99822.00
2022-10-06T16:35:08.776Z,99833.00
2022-10-06T16:37:37.061Z,99826.00
2022-10-06T16:40:06.139Z,99825.00
2022-10-06T16:42:34.475Z,99828.00
2022-10-06T16:45:02.652Z,99839.00
2022-10-06T16:47:32.236Z,99828.00
2022-10-06T16:50:00.453Z,99839.00
2022-10-06T16:52:28.701Z,99835.00
2022-10-06T16:54:57.700Z,99836.00
2022-10-06T16:57:26.085Z,99837.00
2022-10-06T16:59:54.330Z,99841.00
2022-10-06T17:02:23.544Z,99840.00
2022-10-06T17:04:53.717Z,99839.00
2022-10-06T17:07:22.069Z,99842.00
2022-10-06T17:10:15.321Z,99847.00
2022-10-06T17:12:38.818Z,99844.00
2022-10-06T17:15:08.114Z,99850.00
2022-10-06T17:17:36.702Z,99851.00
2022-10-06T17:20:07.945Z,99849.00
2022-10-06T17:22:36.313Z,99847.00
2022-10-06T17:25:04.908Z,99852.00
2022-10-06T17:27:36.082Z,99853.00
2022-10-06T17:30:09.627Z,99853.00
2022-10-06T17:32:38.479Z,99851.00
2022-10-06T17:35:09.130Z,99859.00
2022-10-06T17:37:40.406Z,99863.00
2022-10-06T17:40:09.538Z,99864.00
2022-10-06T17:42:38.546Z,99865.00
2022-10-06T17:45:07.624Z,99860.00
2022-10-06T17:47:35.929Z,99867.00
2022-10-06T17:50:04.106Z,99867.00
2022-10-06T17:52:35.670Z,99862.00
2022-10-06T17:55:03.900Z,99861.00
2022-10-06T17:57:32.115Z,99856.00
2022-10-06T18:00:00.332Z,99855.00
2022-10-06T18:02:28.615Z,99871.00
2022-10-06T18:04:56.864Z,99868.00
2022-10-06T18:07:25.139Z,99866.00
2022-10-06T18:10:08.597Z,99856.00
2022-10-06T18:12:38.541Z,99867.00
2022-10-06T18:15:09.462Z,99866.00
2022-10-06T18:17:37.727Z,99867.00
2022-10-06T18:20:06.579Z,99858.00
2022-10-06T18:22:34.738Z,99867.00
2022-10-06T18:25:04.469Z,99867.00
2022-10-06T18:27:33.475Z,99854.00
2022-10-06T18:30:01.716Z,99860.00
2022-10-06T18:38:07.211Z,99875.00
2022-10-06T18:40:37.787Z,99866.00
2022-10-06T18:43:06.259Z,99865.00
2022-10-06T18:45:52.020Z,99860.00
2022-10-06T18:48:49.332Z,99855.00
2022-10-06T18:51:17.538Z,99859.00
2022-10-06T18:53:45.799Z,99867.00
2022-10-06T18:56:17.018Z,99862.00
2022-10-06T18:58:45.525Z,99868.00
2022-10-06T19:01:13.915Z,99866.00
2022-10-06T19:03:42.201Z,99861.00
2022-10-06T19:06:10.424Z,99860.00
2022-10-06T19:08:38.837Z,99876.00
2022-10-06T19:11:25.191Z,99871.00
2022-10-06T19:13:57.658Z,99865.00
2022-10-06T19:16:25.952Z,99865.00
2022-10-06T19:18:54.619Z,99862.00
2022-10-06T19:21:22.939Z,99873.00
2022-10-06T19:23:51.447Z,99886.00
2022-10-06T19:26:22.805Z,99882.00
2022-10-06T19:28:53.701Z,99872.00
2022-10-06T19:31:23.343Z,99872.00
2022-10-06T19:33:51.485Z,99871.00
2022-10-06T19:36:19.665Z,99875.00
2022-10-06T19:38:47.914Z,99882.00
2022-10-06T19:41:32.797Z,99869.00
2022-10-06T19:44:02.551Z,99875.00
2022-10-06T19:46:32.103Z,99875.00
2022-10-06T19:49:05.567Z,99877.00
2022-10-06T19:51:34.208Z,99875.00
2022-10-06T19:54:02.697Z,99881.00
2022-10-06T19:56:33.146Z,99879.00
2022-10-06T19:59:01.395Z,99873.00
2022-10-06T20:01:31.494Z,99873.00
2022-10-06T20:03:59.896Z,99876.00
2022-10-06T20:06:28.368Z,99873.00
2022-10-06T20:08:57.791Z,99873.00
2022-10-06T20:11:26.039Z,99877.00
2022-10-06T20:13:54.299Z,99878.00
2022-10-06T20:16:22.593Z,99881.00
2022-10-06T20:18:52.418Z,99883.00
2022-10-06T20:21:21.450Z,99890.00
2022-10-06T20:23:49.826Z,99882.00
2022-10-06T20:26:19.152Z,99880.00
2022-10-06T20:28:47.804Z,99877.00
2022-10-06T20:31:17.654Z,99880.00
2022-10-06T20:33:45.865Z,99882.00
2022-10-06T20:36:15.438Z,99894.00
2022-10-06T20:39:00.746Z,99885.00
2022-10-06T20:41:29.711Z,99891.00
2022-10-06T20:43:57.899Z,99900.00
2022-10-06T20:46:26.177Z,99893.00
2022-10-06T20:48:54.388Z,99884.00
2022-10-06T20:51:27.633Z,99884.00
2022-10-06T20:53:56.028Z,99894.00
2022-10-06T20:56:24.678Z,99887.00
2022-10-06T20:58:52.853Z,99882.00
2022-10-06T21:01:22.238Z,99882.00
2022-10-06T21:03:53.145Z,99888.00
2022-10-06T21:06:22.091Z,99882.00
2022-10-06T21:08:52.029Z,99877.00
2022-10-06T21:11:21.711Z,99878.00
2022-10-06T21:13:52.573Z,99878.00
2022-10-06T21:16:21.186Z,99879.00
2022-10-06T21:18:49.641Z,99873.00
2022-10-06T21:21:17.968Z,99885.00
2022-10-06T21:23:47.919Z,99870.00
2022-10-06T21:26:18.679Z,99876.00
2022-10-06T21:28:47.133Z,99868.00
2022-10-06T21:31:16.800Z,99862.00
2022-10-06T21:33:45.858Z,99868.00
2022-10-06T21:36:15.012Z,99862.00
2022-10-06T21:38:43.395Z,99864.00
2022-10-06T21:41:34.475Z,99865.00
2022-10-06T21:44:04.971Z,99860.00
2022-10-06T21:46:34.280Z,99860.00
2022-10-06T21:49:02.828Z,99855.00
2022-10-06T21:51:31.641Z,99851.00
2022-10-06T21:54:00.511Z,99855.00
2022-10-06T21:56:29.703Z,99859.00
2022-10-06T21:58:58.191Z,99855.00
2022-10-06T22:01:29.001Z,99856.00
2022-10-06T22:03:57.437Z,99837.00
2022-10-06T22:06:25.769Z,99846.00
2022-10-06T22:08:54.138Z,99838.00
2022-10-06T22:11:23.097Z,99846.00
2022-10-06T22:13:52.291Z,99851.00
2022-10-06T22:16:21.416Z,99827.00
2022-10-06T22:18:51.359Z,99834.00
2022-10-06T22:21:20.679Z,99826.00
2022-10-06T22:23:51.714Z,99828.00
2022-10-06T22:26:20.043Z,99821.00
2022-10-06T22:28:48.917Z,99826.00
2022-10-06T22:31:19.043Z,99826.00
2022-10-06T22:33:52.850Z,99830.00
2022-10-06T22:36:21.185Z,99828.00
2022-10-06T22:38:49.515Z,99820.00
2022-10-06T22:41:17.817Z,99823.00
2022-10-06T22:43:46.173Z,99811.00
2022-10-06T22:46:14.516Z,99819.00
2022-10-06T22:48:42.929Z,99822.00
2022-10-06T22:51:12.687Z,99811.00
2022-10-06T22:53:41.004Z,99794.00
2022-10-06T22:56:09.367Z,99808.00
2022-10-06T22:58:38.999Z,99805.00
2022-10-06T23:01:11.699Z,99801.00
2022-10-06T23:03:40.203Z,99803.00
2022-10-06T23:06:09.446Z,99797.00
2022-10-06T23:08:39.822Z,99788.00
2022-10-06T23:11:09.527Z,99793.00
2022-10-06T23:13:37.922Z,99795.00
2022-10-06T23:16:08.043Z,99776.00
2022-10-06T23:18:37.501Z,99788.00
2022-10-06T23:21:06.340Z,99782.00
2022-10-06T23:23:34.675Z,99782.00
2022-10-06T23:26:08.543Z,99789.00
2022-10-06T23:28:36.973Z,99788.00
2022-10-06T23:31:05.985Z,99785.00
2022-10-06T23:33:34.525Z,99781.00
2022-10-06T23:36:03.429Z,99795.00
2022-10-06T23:38:31.784Z,99788.00
2022-10-06T23:41:00.130Z,99794.00
2022-10-06T23:43:29.819Z,99787.00
2022-10-06T23:45:58.238Z,99784.00
2022-10-06T23:48:26.669Z,99781.00
2022-10-06T23:50:59.087Z,99786.00
2022-10-06T23:53:27.616Z,99777.00
2022-10-06T23:55:55.928Z,99789.00
2022-10-06T23:58:24.357Z,99775.00
